createdAt,value
2023-01-11T00:02:18.586Z,98546.53
2023-01-11T00:04:47.736Z,98565.08
2023-01-11T00:07:14.924Z,98589.08
2023-01-11T00:09:41.723Z,98608.02
2023-01-11T00:12:08.418Z,98629.23
2023-01-11T00:14:35.163Z,98648.02
2023-01-11T00:17:02.020Z,98664.16
2023-01-11T00:19:28.812Z,98677.50
2023-01-11T00:21:55.710Z,98691.78
2023-01-11T00:24:22.607Z,98704.54
2023-01-11T00:26:49.338Z,98707.95
2023-01-11T00:29:16.210Z,98701.86
2023-01-11T00:31:43.005Z,98701.26
2023-01-11T00:34:09.717Z,98705.84
2023-01-11T00:36:36.481Z,98714.97
2023-01-11T00:39:03.280Z,98713.64
2023-01-11T00:41:48.910Z,98722.28
2023-01-11T00:44:34.370Z,98723.13
2023-01-11T00:47:19.861Z,98732.02
2023-01-11T00:49:46.655Z,98750.54
2023-01-11T00:52:13.405Z,98765.25
2023-01-11T00:54:40.994Z,98777.55
2023-01-11T00:57:08.286Z,98791.54
2023-01-11T00:59:36.101Z,98792.45
2023-01-11T01:02:03.808Z,98802.23
2023-01-11T01:04:30.734Z,98822.63
2023-01-11T01:06:57.596Z,98842.08
2023-01-11T01:09:24.652Z,98860.48
2023-01-11T01:11:51.432Z,98885.83
2023-01-11T01:14:29.097Z,98901.48
2023-01-11T01:17:01.670Z,98911.70
2023-01-11T01:19:29.895Z,98925.23
2023-01-11T01:21:57.723Z,98935.27
2023-01-11T01:24:24.725Z,98942.92
2023-01-11T01:26:51.422Z,98953.73
2023-01-11T01:29:18.144Z,98962.54
2023-01-11T01:31:44.850Z,98969.38
2023-01-11T01:34:12.253Z,98971.16
2023-01-11T01:36:39.221Z,98978.39
2023-01-11T01:39:06.538Z,98984.45
2023-01-11T01:41:34.445Z,98981.66
2023-01-11T01:44:03.203Z,98981.09
2023-01-11T01:46:31.501Z,98970.80
2023-01-11T01:49:09.670Z,98968.69
2023-01-11T01:51:41.769Z,98960.64
2023-01-11T01:54:12.054Z,98961.49
2023-01-11T01:56:59.727Z,98961.48
2023-01-11T01:59:27.040Z,98964.60
2023-01-11T02:01:53.893Z,98962.02
2023-01-11T02:04:25.353Z,98964.39
2023-01-11T02:06:55.189Z,98967.59
2023-01-11T02:09:37.465Z,98967.48
2023-01-11T02:12:04.542Z,98965.59
2023-01-11T02:14:31.543Z,98971.55
2023-01-11T02:16:58.446Z,98970.70
2023-01-11T02:19:53.285Z,98975.27
2023-01-11T02:22:51.343Z,98967.63
2023-01-11T02:25:44.211Z,98968.74
2023-01-11T02:28:13.431Z,98968.48
2023-01-11T02:31:02.218Z,98970.11
2023-01-11T02:33:32.651Z,98975.77
2023-01-11T02:36:21.007Z,98974.31
2023-01-11T02:38:55.307Z,98982.68
2023-01-11T02:41:59.813Z,98985.07
2023-01-11T02:45:16.221Z,98990.84
2023-01-11T02:48:08.406Z,98996.05
2023-01-11T02:50:39.423Z,99006.42
2023-01-11T02:53:10.635Z,99014.16
2023-01-11T02:55:39.266Z,99025.20
2023-01-11T02:58:08.207Z,99032.38
2023-01-11T03:00:38.040Z,99038.89
2023-01-11T03:03:09.302Z,99044.99
2023-01-11T03:05:40.603Z,99042.45
2023-01-11T03:08:44.752Z,99048.08
2023-01-11T03:11:38.696Z,99049.63
2023-01-11T03:14:20.662Z,99056.12
2023-01-11T03:16:53.580Z,99058.55
2023-01-11T03:19:47.182Z,99065.15
2023-01-11T03:22:16.967Z,99073.84
2023-01-11T03:24:45.794Z,99085.56
2023-01-11T03:27:35.633Z,99085.58
2023-01-11T03:30:31.604Z,99087.64
2023-01-11T03:33:03.761Z,99100.48
2023-01-11T03:35:38.035Z,99111.11
2023-01-11T03:38:27.034Z,99118.83
2023-01-11T03:40:57.435Z,99120.25
2023-01-11T03:43:24.625Z,99125.81
2023-01-11T03:46:08.870Z,99128.27
2023-01-11T03:48:40.199Z,99124.38
2023-01-11T03:51:08.949Z,99124.54
2023-01-11T03:53:36.169Z,99127.97
2023-01-11T03:56:03.291Z,99136.05
2023-01-11T03:58:29.953Z,99134.51
2023-01-11T04:00:56.879Z,99130.19
2023-01-11T04:03:26.868Z,99125.37
2023-01-11T04:05:55.180Z,99117.23
2023-01-11T04:08:21.969Z,99104.89
2023-01-11T04:10:49.182Z,99096.16
2023-01-11T04:13:16.066Z,99091.17
2023-01-11T04:15:42.883Z,99087.04
2023-01-11T04:18:09.603Z,99087.16
2023-01-11T04:20:38.449Z,99088.19
2023-01-11T04:23:05.421Z,99090.73
2023-01-11T04:25:32.218Z,99092.81
2023-01-11T04:27:59.021Z,99097.62
2023-01-11T04:30:26.233Z,99097.23
2023-01-11T04:32:53.028Z,99094.59
2023-01-11T04:35:19.829Z,99087.77
2023-01-11T04:37:46.621Z,99085.81
2023-01-11T04:40:13.637Z,99083.96
2023-01-11T04:42:40.541Z,99084.71
2023-01-11T04:45:08.229Z,99081.92
2023-01-11T04:47:35.039Z,99085.68
2023-01-11T04:50:01.937Z,99089.79
2023-01-11T04:52:28.755Z,99093.73
2023-01-11T04:54:55.564Z,99098.79
2023-01-11T04:57:22.428Z,99098.20
2023-01-11T04:59:49.234Z,99102.86
2023-01-11T05:02:16.235Z,99096.66
2023-01-11T05:04:43.646Z,99090.19
2023-01-11T05:07:10.647Z,99086.73
2023-01-11T05:09:37.338Z,99088.81
2023-01-11T05:12:04.255Z,99085.93
2023-01-11T05:14:31.037Z,99089.38
2023-01-11T05:16:59.015Z,99089.66
2023-01-11T05:19:26.052Z,99093.96
2023-01-11T05:21:52.887Z,99095.33
2023-01-11T05:24:19.794Z,99094.78
2023-01-11T05:26:48.620Z,99101.25
2023-01-11T05:29:20.647Z,99107.39
2023-01-11T05:31:47.961Z,99108.48
2023-01-11T05:34:15.378Z,99109.55
2023-01-11T05:36:42.276Z,99115.88
2023-01-11T05:39:09.177Z,99115.91
2023-01-11T05:41:36.197Z,99115.76
2023-01-11T05:44:21.780Z,99118.27
2023-01-11T05:46:48.720Z,99117.21
2023-01-11T05:49:15.513Z,99121.45
2023-01-11T05:51:42.701Z,99117.64
2023-01-11T05:54:11.975Z,99118.85
2023-01-11T05:56:38.928Z,99127.40
2023-01-11T05:59:05.887Z,99128.72
2023-01-11T06:01:32.775Z,99130.15
2023-01-11T06:03:59.668Z,99129.16
2023-01-11T06:06:26.711Z,99128.16
2023-01-11T06:08:53.823Z,99130.64
2023-01-11T06:11:20.622Z,99123.71
2023-01-11T06:13:47.979Z,99119.95
2023-01-11T06:16:16.817Z,99117.77
2023-01-11T06:18:45.732Z,99116.06
2023-01-11T06:21:12.775Z,99109.71
2023-01-11T06:23:40.325Z,99092.59
2023-01-11T06:26:09.369Z,99089.44
2023-01-11T06:28:36.649Z,99088.66
2023-01-11T06:31:03.836Z,99093.00
2023-01-11T06:33:30.825Z,99097.27
2023-01-11T06:35:57.929Z,99103.48
2023-01-11T06:38:25.273Z,99106.52
2023-01-11T06:41:00.614Z,99110.44
2023-01-11T06:43:28.051Z,99105.44
2023-01-11T06:45:55.072Z,99105.48
2023-01-11T06:48:22.003Z,99113.30
2023-01-11T06:50:49.996Z,99113.80
2023-01-11T06:53:16.937Z,99109.79
2023-01-11T06:55:43.849Z,99101.73
2023-01-11T06:58:10.628Z,99097.36
2023-01-11T07:00:37.541Z,99090.09
2023-01-11T07:03:05.361Z,99068.09
2023-01-11T07:05:33.140Z,99049.33
2023-01-11T07:08:00.126Z,99039.94
2023-01-11T07:10:27.014Z,99043.42
2023-01-11T07:12:53.963Z,99039.98
2023-01-11T07:15:20.862Z,99047.19
2023-01-11T07:17:49.465Z,99056.48
2023-01-11T07:20:17.121Z,99055.64
2023-01-11T07:23:34.199Z,99050.19
2023-01-11T07:26:01.390Z,99048.20
2023-01-11T07:28:32.407Z,99048.05
2023-01-11T07:31:00.999Z,99046.00
2023-01-11T07:33:28.023Z,99039.23
2023-01-11T07:35:55.546Z,99030.44
2023-01-11T07:38:22.726Z,99018.19
2023-01-11T07:40:49.596Z,99005.13
2023-01-11T07:43:18.568Z,98997.36
2023-01-11T07:45:50.383Z,99003.77
2023-01-11T07:48:24.980Z,99000.28
2023-01-11T07:50:52.840Z,98996.48
2023-01-11T07:53:20.112Z,99002.55
2023-01-11T07:55:47.747Z,98991.18
2023-01-11T07:58:15.287Z,98987.85
2023-01-11T08:00:48.377Z,98984.15
2023-01-11T08:03:15.440Z,98984.02
2023-01-11T08:05:52.724Z,98984.87
2023-01-11T08:08:19.901Z,98984.05
2023-01-11T08:10:46.908Z,98972.36
2023-01-11T08:13:34.483Z,98964.83
2023-01-11T08:16:13.377Z,98958.64
2023-01-11T08:18:40.312Z,98956.16
2023-01-11T08:21:07.205Z,98956.55
2023-01-11T08:23:58.625Z,98957.73
2023-01-11T08:26:31.552Z,98964.94
2023-01-11T08:29:06.864Z,98971.14
2023-01-11T08:31:49.649Z,98974.52
2023-01-11T08:34:44.967Z,98971.92
2023-01-11T08:37:33.544Z,98976.48
2023-01-11T08:40:24.285Z,98985.56
2023-01-11T08:43:42.064Z,98989.45
2023-01-11T08:46:40.142Z,98988.71
2023-01-11T08:50:07.648Z,98995.47
2023-01-11T08:56:57.201Z,98969.32
2023-01-11T09:00:46.204Z,98964.16
2023-01-11T09:03:51.759Z,98962.22
2023-01-11T09:10:15.872Z,98954.60
2023-01-11T09:13:38.507Z,98948.70
2023-01-11T09:17:24.719Z,98947.38
2023-01-11T09:19:57.504Z,98947.95
2023-01-11T09:23:04.397Z,98953.52
2023-01-11T09:26:12.303Z,98948.68
2023-01-11T09:29:37.455Z,98944.83
2023-01-11T09:33:09.851Z,98930.77
2023-01-11T09:36:03.891Z,98925.45
2023-01-11T09:38:43.375Z,98911.04
2023-01-11T09:42:00.534Z,98883.61
2023-01-11T09:45:21.670Z,98849.33
2023-01-11T09:48:42.291Z,98825.63
2023-01-11T09:51:25.299Z,98816.00
2023-01-11T09:54:35.450Z,98820.63
2023-01-11T09:57:31.475Z,98821.85
2023-01-11T10:01:09.992Z,98804.41
2023-01-11T10:04:24.435Z,98779.20
2023-01-11T10:07:23.110Z,98773.46
2023-01-11T10:14:02.535Z,98749.84
2023-01-11T10:18:30.859Z,98745.33
2023-01-11T10:20:53.653Z,98714.21
2023-01-11T10:23:47.613Z,98684.80
2023-01-11T10:29:47.091Z,98579.55
2023-01-11T10:32:41.810Z,98570.73
2023-01-11T10:35:41.302Z,98539.70
2023-01-11T10:38:37.888Z,98536.81
2023-01-11T10:41:15.318Z,98535.81
2023-01-11T10:43:49.190Z,98524.23
2023-01-11T10:46:21.094Z,98513.34
2023-01-11T10:48:48.148Z,98507.45
2023-01-11T10:51:24.113Z,98512.34
2023-01-11T10:54:13.416Z,98486.56
2023-01-11T10:57:02.922Z,98468.77
2023-01-11T10:59:55.032Z,98442.69
2023-01-11T11:02:48.661Z,98400.98
2023-01-11T15:13:00.304Z,98841.23
2023-01-11T15:15:53.104Z,98765.88
2023-01-11T15:18:26.296Z,98690.85
2023-01-11T15:21:02.736Z,98645.21
2023-01-11T15:23:53.689Z,98603.79
2023-01-11T15:26:26.958Z,98545.69
2023-01-11T15:28:59.339Z,98503.98
2023-01-11T15:31:43.424Z,98479.85
2023-01-11T15:34:39.823Z,98450.89
2023-01-11T15:37:19.069Z,98409.31
2023-01-11T15:40:01.676Z,98382.45
2023-01-11T15:42:51.451Z,98364.83
2023-01-11T15:45:29.676Z,98352.52
2023-01-11T15:48:36.512Z,98333.90
2023-01-11T15:51:16.529Z,98315.45
2023-01-11T15:54:00.798Z,98297.30
2023-01-11T15:56:36.618Z,98289.59
2023-01-11T15:59:31.888Z,98289.81
2023-01-11T16:02:13.542Z,98278.36
2023-01-11T16:04:56.933Z,98272.03
2023-01-11T16:07:44.963Z,98263.73
2023-01-11T16:10:15.084Z,98241.14
2023-01-11T16:12:57.129Z,98245.02
2023-01-11T16:15:29.384Z,98239.54
2023-01-11T16:18:00.793Z,98237.14
2023-01-11T16:20:28.621Z,98236.95
2023-01-11T16:23:01.016Z,98226.23
2023-01-11T16:25:29.655Z,98215.63
2023-01-11T16:27:58.586Z,98222.55
2023-01-11T16:30:28.281Z,98210.08
2023-01-11T16:33:22.354Z,98198.15
2023-01-11T16:35:49.548Z,98194.39
2023-01-11T16:38:19.438Z,98190.69
2023-01-11T16:40:50.781Z,98180.76
2023-01-11T16:43:25.714Z,98174.42
2023-01-11T16:45:56.479Z,98167.52
2023-01-11T16:48:28.003Z,98161.09
2023-01-11T16:51:06.636Z,98150.59
2023-01-11T16:53:41.311Z,98142.29
2023-01-11T16:56:19.875Z,98128.45
2023-01-11T16:59:04.372Z,98132.02
2023-01-11T17:01:53.664Z,98142.83
2023-01-11T17:04:35.199Z,98139.18
2023-01-11T17:07:28.756Z,98132.21
2023-01-11T17:10:21.331Z,98126.92
2023-01-11T17:12:59.594Z,98128.85
2023-01-11T17:15:32.976Z,98128.98
2023-01-11T17:18:03.036Z,98129.67
2023-01-11T17:20:32.909Z,98133.56
2023-01-11T17:23:02.156Z,98137.91
2023-01-11T17:25:43.793Z,98149.34
2023-01-11T17:28:17.262Z,98150.80
2023-01-11T17:30:44.955Z,98151.96
2023-01-11T17:33:32.936Z,98157.03
2023-01-11T17:35:59.953Z,98150.76
2023-01-11T17:38:27.022Z,98151.66
2023-01-11T17:40:57.124Z,98154.02
2023-01-11T17:43:46.251Z,98158.52
2023-01-11T17:46:16.541Z,98165.65
2023-01-11T17:48:53.268Z,98165.84
2023-01-11T17:51:31.660Z,98157.45
2023-01-11T17:53:58.883Z,98154.73
2023-01-11T17:56:32.129Z,98150.67
2023-01-11T17:59:23.831Z,98155.20
2023-01-11T18:01:56.912Z,98163.98
2023-01-11T18:04:23.889Z,98171.34
2023-01-11T18:06:52.322Z,98174.73
2023-01-11T18:09:30.832Z,98190.54
2023-01-11T18:12:15.952Z,98185.65
2023-01-11T18:14:56.490Z,98194.95
2023-01-11T18:17:30.319Z,98197.02
2023-01-11T18:19:59.026Z,98206.13
2023-01-11T18:22:36.666Z,98203.16
2023-01-11T18:25:25.206Z,98212.73
2023-01-11T18:28:21.048Z,98225.73
2023-01-11T18:30:53.576Z,98231.30
2023-01-11T18:33:26.762Z,98243.77
2023-01-11T18:36:02.561Z,98250.36
2023-01-11T18:38:32.782Z,98254.67
2023-01-11T18:41:28.777Z,98263.20
2023-01-11T18:43:56.637Z,98275.08
2023-01-11T18:46:24.110Z,98281.04
2023-01-11T18:48:55.249Z,98281.60
2023-01-11T18:51:35.699Z,98282.52
2023-01-11T18:54:02.957Z,98286.66
2023-01-11T18:56:29.935Z,98286.84
2023-01-11T18:58:59.820Z,98284.68
2023-01-11T19:01:31.715Z,98285.88
2023-01-11T19:04:04.645Z,98287.67
2023-01-11T19:06:34.038Z,98275.64
2023-01-11T19:09:01.343Z,98278.81
2023-01-11T19:11:30.534Z,98284.30
2023-01-11T19:13:57.689Z,98283.76
2023-01-11T19:16:27.743Z,98286.80
2023-01-11T19:18:55.878Z,98295.06
2023-01-11T19:21:22.467Z,98299.52
2023-01-11T19:23:53.257Z,98304.98
2023-01-11T19:26:20.608Z,98310.29
2023-01-11T19:28:49.933Z,98314.27
2023-01-11T19:31:18.885Z,98315.79
2023-01-11T19:33:47.287Z,98312.44
2023-01-11T19:36:14.336Z,98314.66
2023-01-11T19:38:43.946Z,98309.99
2023-01-11T19:41:11.816Z,98308.66
2023-01-11T19:43:46.372Z,98306.59
2023-01-11T19:46:30.052Z,98306.72
2023-01-11T19:48:59.406Z,98306.66
2023-01-11T19:51:26.300Z,98311.77
2023-01-11T19:53:55.431Z,98309.11
2023-01-11T19:56:24.383Z,98309.17
2023-01-11T19:58:53.220Z,98310.83
2023-01-11T20:01:24.363Z,98309.80
2023-01-11T20:03:53.421Z,98310.41
2023-01-11T20:06:20.196Z,98315.56
2023-01-11T20:08:46.982Z,98316.33
2023-01-11T20:11:14.709Z,98323.25
2023-01-11T20:13:49.873Z,98325.61
2023-01-11T20:16:28.022Z,98324.15
2023-01-11T20:18:55.871Z,98328.80
2023-01-11T20:21:25.467Z,98333.48
2023-01-11T20:23:52.094Z,98333.50
2023-01-11T20:26:18.970Z,98337.83
2023-01-11T20:28:49.857Z,98348.14
2023-01-11T20:31:17.442Z,98351.43
2023-01-11T20:33:44.572Z,98353.15
2023-01-11T20:36:16.574Z,98359.67
2023-01-11T20:38:46.665Z,98359.77
2023-01-11T20:41:36.035Z,98365.11
2023-01-11T20:44:04.416Z,98374.67
2023-01-11T20:46:32.037Z,98391.58
2023-01-11T20:49:01.690Z,98406.02
2023-01-11T20:51:33.066Z,98414.40
2023-01-11T20:54:00.291Z,98419.80
2023-01-11T20:56:30.124Z,98426.59
2023-01-11T20:58:58.402Z,98441.73
2023-01-11T21:01:25.961Z,98464.66
2023-01-11T21:04:04.536Z,98481.58
2023-01-11T21:06:37.769Z,98502.96
2023-01-11T21:09:05.779Z,98512.77
2023-01-11T21:11:33.812Z,98520.07
2023-01-11T21:14:13.469Z,98534.02
2023-01-11T21:16:43.685Z,98541.50
2023-01-11T21:19:11.749Z,98549.15
2023-01-11T21:21:38.700Z,98543.35
2023-01-11T21:24:08.028Z,98546.13
2023-01-11T21:26:35.618Z,98549.14
2023-01-11T21:29:03.085Z,98553.54
2023-01-11T21:31:34.625Z,98565.80
2023-01-11T21:34:05.426Z,98578.27
2023-01-11T21:36:32.573Z,98590.28
2023-01-11T21:38:59.551Z,98605.36
2023-01-11T21:41:46.764Z,98609.70
2023-01-11T21:44:16.549Z,98624.48
2023-01-11T21:46:43.717Z,98635.09
2023-01-11T21:49:13.897Z,98641.61
2023-01-11T21:51:41.359Z,98649.33
2023-01-11T21:54:12.456Z,98660.65
2023-01-11T21:56:41.300Z,98667.79
2023-01-11T21:59:08.950Z,98667.08
2023-01-11T22:01:37.266Z,98670.04
2023-01-11T22:04:05.926Z,98666.59
2023-01-11T22:06:36.406Z,98667.20
2023-01-11T22:09:10.181Z,98666.39
2023-01-11T22:11:38.364Z,98656.12
2023-01-11T22:14:06.133Z,98655.25
2023-01-11T22:16:33.437Z,98665.05
2023-01-11T22:19:00.818Z,98663.17
2023-01-11T22:21:29.041Z,98672.98
2023-01-11T22:23:57.201Z,98688.77
2023-01-11T22:26:24.650Z,98695.31
2023-01-11T22:29:11.191Z,98704.95
2023-01-11T22:31:39.769Z,98716.10
2023-01-11T22:34:06.901Z,98724.54
2023-01-11T22:36:33.697Z,98729.40
2023-01-11T22:39:00.504Z,98725.34
2023-01-11T22:41:27.349Z,98726.16
2023-01-11T22:43:54.806Z,98722.39
2023-01-11T22:46:24.028Z,98731.18
2023-01-11T22:48:51.056Z,98738.52
2023-01-11T22:51:23.797Z,98737.95
2023-01-11T22:53:51.353Z,98738.91
2023-01-11T22:56:21.434Z,98737.79
2023-01-11T22:58:50.055Z,98727.30
2023-01-11T23:01:17.972Z,98719.11
2023-01-11T23:03:44.938Z,98724.91
2023-01-11T23:06:13.836Z,98749.48
2023-01-11T23:08:41.775Z,98755.16
2023-01-11T23:11:09.619Z,98771.67
2023-01-11T23:13:52.214Z,98790.29
2023-01-11T23:16:19.051Z,98808.23
2023-01-11T23:18:45.760Z,98818.30
2023-01-11T23:21:12.576Z,98818.73
2023-01-11T23:23:39.350Z,98824.20
2023-01-11T23:26:06.712Z,98819.25
2023-01-11T23:28:34.061Z,98814.34
2023-01-11T23:31:08.397Z,98804.55
2023-01-11T23:33:35.025Z,98803.45
2023-01-11T23:36:03.949Z,98807.16
2023-01-11T23:38:32.020Z,98802.78
2023-01-11T23:41:27.605Z,98806.06
2023-01-11T23:43:54.238Z,98806.86
2023-01-11T23:46:39.708Z,98821.48
2023-01-11T23:49:09.958Z,98834.58
2023-01-11T23:51:37.488Z,98842.72
2023-01-11T23:54:04.677Z,98853.04
2023-01-11T23:56:32.925Z,98861.25
2023-01-11T23:58:59.632Z,98858.56
